• Join FlightAware (Why Join?)
  • Login
  • US Flag 
10:13AM EDT


 

Airport Tracker/Info


-or-


 

Live Flight TrackerFlight Track Log ✈ SWA1688 ✈ 08-Jun-2013 ✈ KSTL - KBWI

Flight Track Log - Related Links

Times and Time Zones

All times are in EDT time to prevent confusion due to time zone crossing. See the SWA1688 flight status page for this flight to view local times or setup timezone preferences in your user account.

Time Position Orientation Groundspeed Altitude Reporting Facility
EDT Latitude Longitude Course Direction KTS MPH feet Rate Location/Type
08:24AM 38.7833 -90.4000 83° East 179 206 2,300  Level Gateway (St. Louis) TRACON
08:25AM 38.8081 -90.4069 348° North 201 231 3,600 1,920 Climbing Kansas City Center
08:26AM 38.8672 -90.3867 15° North 240 276 5,700 2,820 Climbing Kansas City Center
08:27AM 38.8550 -90.2886 99° East 270 311 9,400 3,360 Climbing Kansas City Center
08:28AM 38.8444 -90.1467 95° East 329 379 12,600 3,060 Climbing Kansas City Center
08:29AM 38.8237 -89.5030 83° East  Level Estimated
08:29AM 38.8347 -90.0192 96° East 359 413 15,700  Level Kansas City Center
08:30AM 38.8231 -89.8756 96° East 382 440 18,800 2,880 Climbing Kansas City Center
08:31AM 38.8111 -89.7294 96° East 402 463 21,600 2,700 Climbing Kansas City Center
08:32AM 38.7978 -89.5756 96° East 418 481 24,400 2,520 Climbing Kansas City Center
08:33AM 38.8019 -89.4258 88° East 423 487 26,800 2,160 Climbing Kansas City Center
08:34AM 38.8244 -89.2589 80° East 441 507 28,800 1,920 Climbing Kansas City Center
08:35AM 38.8442 -89.1003 81° East 451 519 30,800 1,440 Climbing Kansas City Center
08:36AM 38.8625 -88.9558 81° East 460 529 31,800 1,620 Climbing Kansas City Center
08:37AM 38.8853 -88.7903 80° East 470 541 34,100 1,560 Climbing Kansas City Center
08:38AM 38.9086 -88.6022 81° East 459 528 35,000 420 Climbing Kansas City Center
08:39AM 38.9311 -88.4428 80° East 454 522 35,000 480 Level Kansas City Center
08:40AM 38.9731 -88.2947 70° East 439 505 36,100 960 Climbing Kansas City Center
08:41AM 39.0153 -88.1414 70° East 442 509 37,000 840 Climbing Kansas City Center
08:42AM 39.0594 -87.9844 70° East 459 528 37,900 960 Climbing Indianapolis Center
08:43AM 39.0883 -87.8181 77° East 471 542 39,000 540 Climbing Indianapolis Center
08:44AM 39.1156 -87.6533 78° East 469 540 39,000  Level Indianapolis Center
08:45AM 39.1431 -87.4906 78° East 464 534 39,000  Level Indianapolis Center
08:46AM 39.1683 -87.3278 79° East 465 535 39,000 -960 Level Indianapolis Center
08:47AM 39.1942 -87.1672 78° East 463 533 37,100 -1,020 Descending Indianapolis Center
08:48AM 39.2256 -86.9731 78° East 464 534 37,000 -60 Descending Indianapolis Center
08:49AM 39.2503 -86.8111 79° East 464 534 37,000  Level Indianapolis Center
08:50AM 39.2747 -86.6486 79° East 465 535 37,000  Level Indianapolis Center
08:51AM 39.2997 -86.4856 79° East 468 539 37,000  Level Indianapolis Center
08:52AM 39.3247 -86.3228 79° East 469 540 37,000  Level Indianapolis Center
08:53AM 39.3494 -86.1614 79° East 465 535 37,000  Level Indianapolis Center
08:54AM 39.3733 -85.9983 79° East 467 537 37,000  Level Indianapolis Center
08:55AM 39.4022 -85.8014 79° East 470 541 37,000  Level Indianapolis Center
08:56AM 39.4253 -85.6375 80° East 468 539 37,000  Level Indianapolis Center
08:57AM 39.4500 -85.4731 79° East 471 542 37,000  Level Indianapolis Center
08:58AM 39.4722 -85.3089 80° East 468 539 37,000  Level Indianapolis Center
08:59AM 39.4956 -85.1464 79° East 464 534 37,000  Level Indianapolis Center
09:00AM 39.5189 -84.9825 79° East 465 535 37,000  Level Indianapolis Center
09:01AM 39.5458 -84.7889 80° East 465 535 37,000  Level Indianapolis Center
09:02AM 39.5678 -84.6217 80° East 467 537 37,000  Level Indianapolis Center
09:03AM 39.5914 -84.4536 80° East 470 541 37,000  Level Indianapolis Center
09:04AM 39.6122 -84.2831 81° East 475 547 37,000  Level Indianapolis Center
09:06AM 39.6350 -84.1119 80° East 478 550 37,000  Level Indianapolis Center
09:07AM 39.6578 -83.9403 80° East 481 554 37,000  Level Indianapolis Center
09:08AM 39.6808 -83.7706 80° East 476 548 37,000  Level Indianapolis Center
09:09AM 39.7236 -83.6050 71° East 483 556 37,000  Level Indianapolis Center
09:10AM 39.7669 -83.4375 71° East 483 556 37,000  Level Indianapolis Center
09:11AM 39.8142 -83.2508 72° East 486 559 37,000  Level Indianapolis Center
09:12AM 39.8367 -83.0828 80° East 472 543 37,000  Level Indianapolis Center
09:13AM 39.8394 -82.9081 89° East 478 550 37,000  Level Indianapolis Center
09:14AM 39.8428 -82.7356 89° East 474 545 37,000  Level Indianapolis Center
09:15AM 39.8456 -82.5611 89° East 477 549 37,000  Level Indianapolis Center
09:16AM 39.8483 -82.3889 89° East 475 547 37,000  Level Indianapolis Center
09:17AM 39.8511 -82.2156 89° East 474 545 37,000  Level Indianapolis Center
09:18AM 39.8528 -82.0436 89° East 474 545 37,000  Level Indianapolis Center
09:19AM 39.8547 -81.8708 89° East 473 544 37,000  Level Indianapolis Center
09:20AM 39.8567 -81.6978 89° East 474 545 37,000  Level Indianapolis Center
09:21AM 39.8567 -81.4958 90° East 475 547 37,000  Level Indianapolis Center
09:22AM 39.8447 -81.3456 96° East 474 545 37,000  Level Indianapolis Center
09:23AM 39.8317 -81.1733 96° East 475 547 37,000 -240 Level Indianapolis Center
09:24AM 39.8192 -81.0014 95° East 476 548 36,600 -780 Descending Indianapolis Center
09:25AM 39.8031 -80.7956 96° East 474 545 35,400 -840 Descending Indianapolis Center
09:26AM 39.7903 -80.6258 96° East 471 542 35,000 -240 Descending Indianapolis Center
09:27AM 39.7769 -80.4564 96° East 470 541 35,000  Level Indianapolis Center
09:28AM 39.7639 -80.2872 96° East 469 540 35,000  Level Indianapolis Center
09:29AM 39.7492 -80.0781 95° East 470 541 35,000  Level Cleveland Center
09:31AM 39.7269 -79.8247 96° East 465 535 35,000 -960 Level Washington Center
09:32AM 39.7119 -79.6539 96° East 465 535 32,600 -4,980 Descending Washington Center
09:33AM 39.6986 -79.4886 96° East 465 535 25,000 -2,280 Descending Washington Center
09:34AM 39.6869 -79.3317 95° East 455 524 28,200 540 Climbing Washington Center
09:35AM 39.6728 -79.1772 97° East 437 503 26,100 -1,620 Descending Washington Center
09:36AM 39.6500 -79.0306 101° East 424 488 25,000 -600 Descending Washington Center
09:37AM 39.6150 -78.8725 106° East 411 473 25,000 -840 Level Washington Center
09:38AM 39.5853 -78.7367 106° East 406 467 23,400 -1,800 Descending Washington Center
09:39AM 39.5553 -78.6008 106° East 401 461 21,500 -1,920 Descending Washington Center
09:40AM 39.5231 -78.4647 107° East 396 456 19,600 -1,860 Descending Washington Center
09:41AM 39.4950 -78.3319 105° East 386 444 17,800 -1,860 Descending Washington Center
09:42AM 39.4667 -78.2044 106° East 380 437 15,900 -1,440 Descending Washington Center
09:43AM 39.4506 -78.0750 99° East 374 430 15,000 -480 Descending Washington Center
09:44AM 39.4489 -77.9458 91° East 368 423 15,000  Level Washington Center
09:45AM 39.4494 -77.8169 90° East 363 418 15,000  Level Washington Center
09:46AM 39.4472 -77.7011 91° East 363 418 15,000 -660 Level Washington Center
09:47AM 39.4472 -77.5750 90° East 358 412 13,800 -1,500 Descending Washington Center
09:48AM 39.4453 -77.4486 91° East 348 400 12,100 -1,620 Descending Washington Center
09:49AM 39.4500 -77.3333 87° East 341 392 11,000 -720 Descending Potomac TRACON
09:50AM 39.4667 -77.2333 78° East 336 387 11,000 -300 Level Potomac TRACON
09:51AM 39.4667 -77.1167 90° East 332 382 10,500 -960 Descending Potomac TRACON
09:52AM 39.4667 -77.0000 90° East 319 367 9,100 -1,440 Descending Potomac TRACON
09:53AM 39.4833 -76.9000 78° East 305 351 7,700 -1,440 Descending Potomac TRACON
09:53AM 39.4833 -76.8000 90° East 304 350 6,400 -1,500 Descending Potomac TRACON
09:54AM 39.4833 -76.7000 90° East 294 338 5,100 -1,020 Descending Potomac TRACON
09:55AM 39.4500 -76.6000 113° Southeast 286 329 4,400 -540 Descending Potomac TRACON
09:56AM 39.4000 -76.5333 134° Southeast 270 311 4,000 -240 Descending Potomac TRACON
09:57AM 39.3500 -76.4667 134° Southeast 273 314 4,000 -240 Level Potomac TRACON
09:58AM 39.2833 -76.4500 169° South 256 295 3,600 -540 Descending Potomac TRACON
09:59AM 39.2167 -76.4500 180° South 244 281 3,000 -360 Descending Potomac TRACON
10:00AM 39.1667 -76.4833 207° Southwest 214 246 3,000 -540 Level Potomac TRACON
10:01AM 39.1167 -76.5167 207° Southwest 216 249 2,000 -780 Descending Potomac TRACON
10:02AM 39.1167 -76.5833 270° West 165 190 1,500 -420 Descending Potomac TRACON
10:03AM 39.1167 -76.6167 270° West 149 171 1,200 -600 Descending Potomac TRACON
10:04AM 39.1500 -76.6500 322° Northwest 133 153 400 -840 Descending Potomac TRACON